createdAt,value
2018-03-29T00:00:15.767Z,7.70
2018-03-29T00:02:43.150Z,7.80
2018-03-29T00:05:10.685Z,7.80
2018-03-29T00:07:39.007Z,7.80
2018-03-29T00:10:06.355Z,7.70
2018-03-29T00:12:33.830Z,7.70
2018-03-29T00:15:01.285Z,7.70
2018-03-29T00:17:28.805Z,7.70
2018-03-29T00:19:56.385Z,7.70
2018-03-29T00:22:23.686Z,7.70
2018-03-29T00:24:51.666Z,7.70
2018-03-29T00:27:19.007Z,7.70
2018-03-29T00:29:47.087Z,7.80
2018-03-29T00:32:14.685Z,7.70
2018-03-29T00:34:42.405Z,7.80
2018-03-29T00:37:09.785Z,7.80
2018-03-29T00:39:37.248Z,7.80
2018-03-29T00:42:04.705Z,7.70
2018-03-29T00:44:32.145Z,7.70
2018-03-29T00:46:59.485Z,7.60
2018-03-29T00:49:27.064Z,7.50
2018-03-29T00:51:54.386Z,7.40
2018-03-29T00:54:22.506Z,7.20
2018-03-29T00:56:49.932Z,7.10
2018-03-29T00:59:17.406Z,7.20
2018-03-29T01:01:44.832Z,7.10
2018-03-29T01:04:12.452Z,7.10
2018-03-29T01:06:39.971Z,7.00
2018-03-29T01:09:07.371Z,6.60
2018-03-29T01:11:34.731Z,6.60
2018-03-29T01:14:02.851Z,6.30
2018-03-29T01:16:30.190Z,6.10
2018-03-29T01:18:57.573Z,6.00
2018-03-29T01:21:25.411Z,6.00
2018-03-29T01:23:52.851Z,6.00
2018-03-29T01:26:20.271Z,5.80
2018-03-29T01:28:48.411Z,5.60
2018-03-29T01:31:15.831Z,5.50
2018-03-29T01:33:43.159Z,5.70
2018-03-29T01:36:10.531Z,5.90
2018-03-29T01:38:38.311Z,5.90
2018-03-29T01:41:05.832Z,5.80
2018-03-29T01:43:33.112Z,5.60
2018-03-29T01:46:00.853Z,5.50
2018-03-29T01:48:28.290Z,5.50
2018-03-29T01:50:56.612Z,5.80
2018-03-29T01:53:24.072Z,5.80
2018-03-29T01:55:51.711Z,6.00
2018-03-29T01:58:19.071Z,6.00
2018-03-29T02:00:46.491Z,5.90
2018-03-29T02:03:14.314Z,6.00
2018-03-29T02:05:42.375Z,6.10
2018-03-29T02:08:09.891Z,6.00
2018-03-29T02:10:37.420Z,6.00
2018-03-29T02:13:05.573Z,5.90
2018-03-29T02:15:33.311Z,5.80
2018-03-29T02:18:00.651Z,5.80
2018-03-29T02:20:28.131Z,5.30
2018-03-29T02:22:56.291Z,5.10
2018-03-29T02:25:23.746Z,5.00
2018-03-29T02:27:52.366Z,5.50
2018-03-29T02:30:19.808Z,5.40
2018-03-29T02:32:47.287Z,5.60
2018-03-29T02:35:16.431Z,5.70
2018-03-29T02:37:44.826Z,5.90
2018-03-29T02:40:13.466Z,6.00
2018-03-29T02:42:40.906Z,6.00
2018-03-29T02:45:08.367Z,6.10
2018-03-29T02:47:35.646Z,6.10
2018-03-29T02:50:03.171Z,6.10
2018-03-29T02:52:30.815Z,6.20
2018-03-29T02:54:58.786Z,6.30
2018-03-29T02:57:26.047Z,6.30
2018-03-29T02:59:53.526Z,6.40
2018-03-29T03:02:20.832Z,6.40
2018-03-29T03:04:48.928Z,6.50
2018-03-29T03:07:16.507Z,6.40
2018-03-29T03:09:43.967Z,6.40
2018-03-29T03:12:11.226Z,6.50
2018-03-29T03:14:38.607Z,6.50
2018-03-29T03:17:05.891Z,6.50
2018-03-29T03:19:33.326Z,6.60
2018-03-29T03:22:00.750Z,6.60
2018-03-29T03:24:28.126Z,6.60
2018-03-29T03:26:55.545Z,6.60
2018-03-29T03:29:23.668Z,6.60
2018-03-29T03:31:51.006Z,6.60
2018-03-29T03:34:19.287Z,6.60
2018-03-29T03:36:46.686Z,6.60
2018-03-29T03:39:14.486Z,6.60
2018-03-29T03:41:42.943Z,6.50
2018-03-29T03:44:10.426Z,6.50
2018-03-29T03:46:38.566Z,6.50
2018-03-29T03:49:05.886Z,6.50
2018-03-29T03:51:33.686Z,6.50
2018-03-29T03:54:01.247Z,6.50
2018-03-29T03:59:00.106Z,6.50
2018-03-29T04:01:27.606Z,6.50
2018-03-29T04:03:55.506Z,6.50
2018-03-29T04:06:22.926Z,6.60
2018-03-29T04:08:50.706Z,6.60
2018-03-29T04:11:18.086Z,6.60
2018-03-29T04:13:45.565Z,6.70
2018-03-29T04:16:12.985Z,6.70
2018-03-29T04:18:40.606Z,6.60
2018-03-29T04:21:09.086Z,6.70
2018-03-29T04:23:36.706Z,6.60
2018-03-29T04:26:04.126Z,6.60
2018-03-29T04:28:31.546Z,6.60
2018-03-29T04:30:58.910Z,6.60
2018-03-29T04:33:26.406Z,6.60
2018-03-29T04:35:53.867Z,6.60
2018-03-29T04:38:21.266Z,6.60
2018-03-29T04:40:49.134Z,6.60
2018-03-29T04:43:16.407Z,6.60
2018-03-29T04:45:43.845Z,6.60
2018-03-29T04:48:11.274Z,6.50
2018-03-29T04:50:39.646Z,6.60
2018-03-29T04:53:07.949Z,6.60
2018-03-29T04:55:35.701Z,6.60
2018-03-29T04:58:03.106Z,6.60
2018-03-29T05:00:30.436Z,6.60
2018-03-29T05:02:58.125Z,6.60
2018-03-29T05:05:25.587Z,6.50
2018-03-29T05:07:53.353Z,6.60
2018-03-29T05:10:21.446Z,6.60
2018-03-29T05:12:49.045Z,6.60
2018-03-29T05:15:16.466Z,6.60
2018-03-29T05:20:15.646Z,6.80
2018-03-29T05:22:43.095Z,6.80
2018-03-29T05:25:10.467Z,6.80
2018-03-29T05:27:38.225Z,6.80
2018-03-29T05:30:05.693Z,6.80
2018-03-29T05:32:33.046Z,6.80
2018-03-29T05:35:02.791Z,6.90
2018-03-29T05:37:30.226Z,6.90
2018-03-29T05:39:57.726Z,6.90
2018-03-29T05:42:25.146Z,6.90
2018-03-29T05:44:52.946Z,6.90
2018-03-29T05:49:51.726Z,6.80
2018-03-29T05:52:18.989Z,6.70
2018-03-29T05:54:47.026Z,6.70
2018-03-29T05:57:14.345Z,6.60
2018-03-29T05:59:41.786Z,6.70
2018-03-29T06:02:09.467Z,6.70
2018-03-29T06:04:37.066Z,6.80
2018-03-29T06:07:04.446Z,6.80
2018-03-29T06:09:31.806Z,6.90
2018-03-29T06:11:59.647Z,6.90
2018-03-29T06:14:32.626Z,6.90
2018-03-29T06:17:00.128Z,6.80
2018-03-29T06:19:27.527Z,6.80
2018-03-29T06:21:55.167Z,6.80
2018-03-29T06:24:22.688Z,6.90
2018-03-29T06:26:49.986Z,7.00
2018-03-29T06:29:17.767Z,7.00
2018-03-29T06:31:45.486Z,7.10
2018-03-29T06:34:12.771Z,7.10
2018-03-29T06:36:40.206Z,7.20
2018-03-29T06:39:07.869Z,7.20
2018-03-29T06:41:35.586Z,7.10
2018-03-29T06:44:02.927Z,7.20
2018-03-29T06:46:30.830Z,7.20
2018-03-29T06:48:58.795Z,7.20
2018-03-29T06:51:26.326Z,7.30
2018-03-29T06:53:53.866Z,7.30
2018-03-29T06:56:21.154Z,7.40
2018-03-29T06:58:50.077Z,7.50
2018-03-29T07:01:17.566Z,7.50
2018-03-29T07:03:45.028Z,7.60
2018-03-29T07:06:12.446Z,7.60
2018-03-29T07:08:40.246Z,7.60
2018-03-29T07:11:07.806Z,7.70
2018-03-29T07:13:35.167Z,7.80
2018-03-29T07:16:02.594Z,7.80
2018-03-29T07:18:30.368Z,7.90
2018-03-29T07:20:57.645Z,8.00
2018-03-29T07:23:25.086Z,8.00
2018-03-29T07:25:53.248Z,8.10
2018-03-29T07:28:20.667Z,8.10
2018-03-29T07:30:48.886Z,8.20
2018-03-29T07:33:17.186Z,8.20
2018-03-29T07:35:44.606Z,8.10
2018-03-29T07:38:12.226Z,8.20
2018-03-29T07:40:39.467Z,8.20
2018-03-29T07:43:07.608Z,8.30
2018-03-29T07:45:35.067Z,8.20
2018-03-29T07:48:03.366Z,8.30
2018-03-29T07:50:30.686Z,8.30
2018-03-29T07:52:58.426Z,8.30
2018-03-29T07:55:26.046Z,8.30
2018-03-29T07:57:54.209Z,8.30
2018-03-29T08:00:21.421Z,8.40
2018-03-29T08:02:49.291Z,8.40
2018-03-29T08:05:17.131Z,8.50
2018-03-29T08:07:44.613Z,8.50
2018-03-29T08:10:12.239Z,8.60
2018-03-29T08:12:39.652Z,8.60
2018-03-29T08:15:07.092Z,8.60
2018-03-29T08:17:34.571Z,8.70
2018-03-29T08:20:02.057Z,8.60
2018-03-29T08:22:29.810Z,8.60
2018-03-29T08:24:57.261Z,8.60
2018-03-29T08:27:24.689Z,8.60
2018-03-29T08:29:51.947Z,8.70
2018-03-29T08:32:19.248Z,8.80
2018-03-29T08:34:46.496Z,8.90
2018-03-29T08:37:14.108Z,8.90
2018-03-29T08:39:41.514Z,9.00
2018-03-29T08:42:08.795Z,9.20
2018-03-29T08:44:37.413Z,9.50
2018-03-29T08:47:04.956Z,9.40
2018-03-29T08:49:32.396Z,9.60
2018-03-29T08:51:59.748Z,9.70
2018-03-29T08:54:27.808Z,9.70
2018-03-29T08:56:55.168Z,9.80
2018-03-29T08:59:22.527Z,9.80
2018-03-29T09:01:50.428Z,9.80
2018-03-29T09:04:17.727Z,9.70
2018-03-29T09:06:45.107Z,9.70
2018-03-29T09:09:12.406Z,9.70
2018-03-29T09:11:39.807Z,9.70
2018-03-29T09:14:07.228Z,9.70
2018-03-29T09:16:34.867Z,9.70
2018-03-29T09:19:03.143Z,9.50
2018-03-29T09:21:30.647Z,9.50
2018-03-29T09:23:59.074Z,9.40
2018-03-29T09:26:26.851Z,9.40
2018-03-29T09:28:54.286Z,9.40
2018-03-29T09:31:22.526Z,9.30
2018-03-29T09:33:50.366Z,9.30
2018-03-29T09:36:18.267Z,9.30
2018-03-29T09:38:45.706Z,9.40
2018-03-29T09:41:13.095Z,9.40
2018-03-29T09:43:40.468Z,9.50
2018-03-29T09:46:07.967Z,9.50
2018-03-29T09:48:35.486Z,9.50
2018-03-29T09:51:02.846Z,9.50
2018-03-29T09:53:30.226Z,9.50
2018-03-29T09:55:57.569Z,9.60
2018-03-29T09:58:24.967Z,9.50
2018-03-29T10:00:52.191Z,9.60
2018-03-29T10:03:22.527Z,9.60
2018-03-29T10:05:49.867Z,9.60
2018-03-29T10:08:17.569Z,9.50
2018-03-29T10:10:45.027Z,9.50
2018-03-29T10:13:13.744Z,9.40
2018-03-29T10:15:41.410Z,9.40
2018-03-29T10:18:08.828Z,9.40
2018-03-29T10:20:36.346Z,9.30
2018-03-29T10:23:03.647Z,9.20
2018-03-29T10:25:32.206Z,9.20
2018-03-29T10:27:59.608Z,9.10
2018-03-29T10:30:26.975Z,9.20
2018-03-29T10:32:54.379Z,9.10
2018-03-29T10:35:21.728Z,9.10
2018-03-29T10:37:49.827Z,9.20
2018-03-29T10:40:17.287Z,9.20
2018-03-29T10:42:44.706Z,9.20
2018-03-29T10:45:12.227Z,9.20
2018-03-29T10:47:39.506Z,9.10
2018-03-29T10:50:06.847Z,9.10
2018-03-29T10:52:34.092Z,9.10
2018-03-29T10:55:02.173Z,8.90
2018-03-29T10:57:29.506Z,8.90
2018-03-29T10:59:56.788Z,8.90
2018-03-29T11:02:25.231Z,9.00
2018-03-29T11:07:25.030Z,9.10
2018-03-29T11:09:52.254Z,9.20
2018-03-29T11:12:19.650Z,9.20
2018-03-29T11:14:46.990Z,9.30
2018-03-29T11:17:14.250Z,9.20
2018-03-29T11:19:42.431Z,9.30
2018-03-29T11:22:10.207Z,9.30
2018-03-29T11:24:38.545Z,9.40
2018-03-29T11:27:05.846Z,9.40
2018-03-29T11:29:33.295Z,9.40
2018-03-29T11:32:00.605Z,9.30
2018-03-29T11:34:27.986Z,9.20
2018-03-29T11:36:56.068Z,9.20
2018-03-29T11:39:23.367Z,9.20
2018-03-29T11:41:50.685Z,9.20
2018-03-29T11:44:18.168Z,9.20
2018-03-29T11:46:46.406Z,9.10
2018-03-29T11:49:13.848Z,9.10
2018-03-29T11:51:41.195Z,9.10
2018-03-29T11:54:08.567Z,9.00
2018-03-29T11:56:36.844Z,8.90
2018-03-29T11:59:04.272Z,8.90
2018-03-29T12:01:31.646Z,8.90
2018-03-29T12:03:59.330Z,8.90
2018-03-29T12:06:26.647Z,9.00
2018-03-29T12:08:55.325Z,8.90
2018-03-29T12:11:24.372Z,8.90
2018-03-29T12:13:52.149Z,8.90
2018-03-29T12:16:20.133Z,8.90
2018-03-29T12:18:47.568Z,9.00
2018-03-29T12:21:14.828Z,9.00
2018-03-29T12:23:42.267Z,9.00
2018-03-29T12:26:10.197Z,9.00
2018-03-29T12:28:38.689Z,9.00
2018-03-29T12:31:06.210Z,9.00
2018-03-29T12:33:33.509Z,9.00
2018-03-29T12:36:00.910Z,9.00
2018-03-29T12:38:28.669Z,9.00
2018-03-29T12:40:56.030Z,9.00
2018-03-29T12:43:24.149Z,9.00
2018-03-29T12:45:51.510Z,9.00
2018-03-29T12:48:18.894Z,9.00
2018-03-29T12:50:46.248Z,9.00
2018-03-29T12:53:14.335Z,9.00
2018-03-29T12:55:41.670Z,8.90
2018-03-29T12:58:09.228Z,8.90
2018-03-29T13:03:27.862Z,8.90
2018-03-29T13:06:02.463Z,8.90
2018-03-29T13:08:33.494Z,8.90
2018-03-29T13:11:12.823Z,8.80
2018-03-29T13:13:43.574Z,8.80
2018-03-29T13:16:14.009Z,8.90
2018-03-29T13:18:42.889Z,8.90
2018-03-29T13:21:10.274Z,9.00
2018-03-29T13:26:21.946Z,9.00
2018-03-29T13:28:49.755Z,9.00
2018-03-29T13:31:17.089Z,9.00
2018-03-29T13:33:44.614Z,9.10
2018-03-29T13:36:17.007Z,9.10
2018-03-29T13:38:44.486Z,9.00
2018-03-29T13:41:18.693Z,8.90
2018-03-29T13:43:49.109Z,8.80
2018-03-29T13:46:16.865Z,8.80
2018-03-29T13:51:50.149Z,8.80
2018-03-29T13:54:23.113Z,8.80
2018-03-29T13:56:50.846Z,8.80
2018-03-29T13:59:18.229Z,8.80
2018-03-29T14:01:45.780Z,8.80
2018-03-29T14:04:13.609Z,8.90
2018-03-29T14:09:44.754Z,8.80
2018-03-29T14:12:13.771Z,8.60
2018-03-29T14:14:41.671Z,8.60
2018-03-29T14:17:15.671Z,8.70
2018-03-29T14:19:55.106Z,8.60
2018-03-29T14:22:24.768Z,8.70
2018-03-29T14:24:55.190Z,8.70
2018-03-29T14:27:24.256Z,8.60
2018-03-29T14:30:14.754Z,8.60
2018-03-29T14:32:43.216Z,8.50
2018-03-29T14:35:11.519Z,8.50
2018-03-29T14:37:39.351Z,8.50
2018-03-29T14:40:08.213Z,8.50
2018-03-29T14:45:42.110Z,8.40
2018-03-29T14:48:22.934Z,8.20
2018-03-29T14:50:53.027Z,8.20
2018-03-29T14:53:21.988Z,8.20
2018-03-29T14:55:52.438Z,8.20
2018-03-29T14:58:26.329Z,8.10
2018-03-29T15:00:58.547Z,8.10
2018-03-29T15:03:26.045Z,8.10
2018-03-29T15:05:55.656Z,8.10
2018-03-29T15:08:28.289Z,8.10
2018-03-29T15:11:01.712Z,8.10
2018-03-29T15:13:31.288Z,8.10
2018-03-29T15:18:47.373Z,8.20
2018-03-29T15:21:17.912Z,8.10
2018-03-29T15:23:46.847Z,8.00
2018-03-29T15:26:15.112Z,8.00
2018-03-29T15:28:42.533Z,8.00
2018-03-29T15:31:11.064Z,7.90
2018-03-29T15:33:40.555Z,7.90
2018-03-29T15:36:07.927Z,7.90
2018-03-29T15:38:37.171Z,7.90
2018-03-29T15:41:05.169Z,7.80
2018-03-29T15:43:34.392Z,7.80
2018-03-29T15:46:01.797Z,7.80
2018-03-29T15:48:29.068Z,7.80
2018-03-29T15:50:56.722Z,7.80
2018-03-29T15:53:24.446Z,7.80
2018-03-29T15:55:52.193Z,7.70
2018-03-29T15:58:19.899Z,7.70
2018-03-29T16:00:52.653Z,7.60
2018-03-29T16:03:20.527Z,7.60
2018-03-29T16:05:52.475Z,7.60
2018-03-29T16:08:19.929Z,7.60
2018-03-29T16:10:48.224Z,7.60
2018-03-29T16:13:15.767Z,7.60
2018-03-29T16:15:43.167Z,7.60
2018-03-29T16:18:11.556Z,7.60
2018-03-29T16:20:39.006Z,7.50
2018-03-29T16:23:06.571Z,7.50
2018-03-29T16:25:35.030Z,7.50
2018-03-29T16:28:02.527Z,7.50
2018-03-29T16:30:30.689Z,7.50
2018-03-29T16:32:58.131Z,7.50
2018-03-29T16:35:26.246Z,7.40
2018-03-29T16:37:53.729Z,7.40
2018-03-29T16:40:21.175Z,7.50
2018-03-29T16:42:48.647Z,7.30
2018-03-29T16:45:16.089Z,7.30
2018-03-29T16:47:43.659Z,7.20
2018-03-29T16:50:11.098Z,7.20
2018-03-29T16:52:38.607Z,7.20
2018-03-29T16:55:06.405Z,7.20
2018-03-29T16:57:33.831Z,7.20
2018-03-29T17:00:01.325Z,7.20
2018-03-29T17:02:28.912Z,7.20
2018-03-29T17:04:56.292Z,7.20
2018-03-29T17:07:23.793Z,7.20
2018-03-29T17:09:51.728Z,7.20
2018-03-29T17:12:19.521Z,7.20
2018-03-29T17:14:47.010Z,7.20
2018-03-29T17:17:14.390Z,7.30
2018-03-29T17:19:41.709Z,7.30
2018-03-29T17:22:09.247Z,7.30
2018-03-29T17:24:36.676Z,7.30
2018-03-29T17:27:04.129Z,7.30
2018-03-29T17:29:31.587Z,7.40
2018-03-29T17:31:59.815Z,7.40
2018-03-29T17:34:27.208Z,7.40
2018-03-29T17:36:55.248Z,7.50
2018-03-29T17:39:22.670Z,7.50
2018-03-29T17:41:50.050Z,7.50
2018-03-29T17:44:19.150Z,7.40
2018-03-29T17:46:46.517Z,7.40
2018-03-29T17:49:13.958Z,7.40
2018-03-29T17:51:41.371Z,7.30
2018-03-29T17:54:09.552Z,7.20
2018-03-29T17:56:37.856Z,7.30
2018-03-29T17:59:05.652Z,7.30
2018-03-29T18:01:33.612Z,7.30
2018-03-29T18:04:01.072Z,7.20
2018-03-29T18:06:29.030Z,7.20
2018-03-29T18:08:56.410Z,7.20
2018-03-29T18:11:24.012Z,7.20
2018-03-29T18:13:51.512Z,7.10
2018-03-29T18:16:18.850Z,7.00
2018-03-29T18:18:46.688Z,6.90
2018-03-29T18:21:14.350Z,6.70
2018-03-29T18:23:42.040Z,6.70
2018-03-29T18:26:10.312Z,6.10
2018-03-29T18:28:37.790Z,6.10
2018-03-29T18:31:05.250Z,6.20
2018-03-29T18:33:33.229Z,6.20
2018-03-29T18:36:01.449Z,6.50
2018-03-29T18:38:28.989Z,6.50
2018-03-29T18:40:57.268Z,6.70
2018-03-29T18:43:24.817Z,6.70
2018-03-29T18:45:54.878Z,6.80
2018-03-29T18:48:23.015Z,6.80
2018-03-29T18:50:50.848Z,6.70
2018-03-29T18:53:18.828Z,6.50
2018-03-29T18:55:46.788Z,6.40
2018-03-29T18:58:14.352Z,6.40
2018-03-29T19:00:42.715Z,6.50
2018-03-29T19:03:10.084Z,6.50
2018-03-29T19:05:37.435Z,6.60
2018-03-29T19:08:04.773Z,6.60
2018-03-29T19:10:33.989Z,6.50
2018-03-29T19:13:01.453Z,6.40
2018-03-29T19:15:28.717Z,6.40
2018-03-29T19:17:57.568Z,6.50
2018-03-29T19:20:25.449Z,6.60
2018-03-29T19:22:53.426Z,6.60
2018-03-29T19:25:21.207Z,6.70
2018-03-29T19:27:49.187Z,6.70
2018-03-29T19:30:18.430Z,6.70
2018-03-29T19:32:45.889Z,6.70
2018-03-29T19:35:15.469Z,6.70
2018-03-29T19:37:43.720Z,6.70
2018-03-29T19:40:12.488Z,6.70
2018-03-29T19:42:39.916Z,6.70
2018-03-29T19:45:07.171Z,6.70
2018-03-29T19:47:34.568Z,6.70
2018-03-29T19:50:02.006Z,6.70
2018-03-29T19:52:29.368Z,6.80
2018-03-29T19:54:57.167Z,6.70
2018-03-29T19:57:24.768Z,6.80
2018-03-29T19:59:52.187Z,6.80
2018-03-29T20:02:19.513Z,6.80
2018-03-29T20:04:46.988Z,6.80
2018-03-29T20:07:15.034Z,6.80
2018-03-29T20:09:42.370Z,6.90
2018-03-29T20:12:10.306Z,6.90
2018-03-29T20:14:37.794Z,6.90
2018-03-29T20:17:05.248Z,6.90
2018-03-29T20:19:32.934Z,6.90
2018-03-29T20:22:00.929Z,6.90
2018-03-29T20:24:28.452Z,6.80
2018-03-29T20:26:57.093Z,6.90
2018-03-29T20:29:24.770Z,6.80
2018-03-29T20:31:52.148Z,6.90
2018-03-29T20:34:19.634Z,6.90
2018-03-29T20:36:47.032Z,6.80
2018-03-29T20:39:14.552Z,6.90
2018-03-29T20:41:41.976Z,6.80
2018-03-29T20:44:10.110Z,6.80
2018-03-29T20:46:37.650Z,6.80
2018-03-29T20:49:05.036Z,6.80
2018-03-29T20:51:33.648Z,6.80
2018-03-29T20:54:00.928Z,6.80
2018-03-29T20:56:28.288Z,6.80
2018-03-29T20:58:55.769Z,6.70
2018-03-29T21:01:23.050Z,6.70
2018-03-29T21:03:50.528Z,6.70
2018-03-29T21:06:17.989Z,6.60
2018-03-29T21:08:45.410Z,6.50
2018-03-29T21:11:12.948Z,6.50
2018-03-29T21:13:40.449Z,6.50
2018-03-29T21:16:08.128Z,6.50
2018-03-29T21:18:35.540Z,6.50
2018-03-29T21:21:02.910Z,6.60
2018-03-29T21:23:30.214Z,6.60
2018-03-29T21:25:59.329Z,6.60
2018-03-29T21:28:26.786Z,6.60
2018-03-29T21:30:54.549Z,6.60
2018-03-29T21:33:22.733Z,6.60
2018-03-29T21:35:51.408Z,6.60
2018-03-29T21:38:18.806Z,6.60
2018-03-29T21:40:46.306Z,6.60
2018-03-29T21:43:14.466Z,6.50
2018-03-29T21:45:43.427Z,6.50
2018-03-29T21:48:10.746Z,6.50
2018-03-29T21:50:38.090Z,6.50
2018-03-29T21:53:05.545Z,6.40
2018-03-29T21:55:32.908Z,6.40
2018-03-29T21:58:00.426Z,6.40
2018-03-29T22:00:30.074Z,6.40
2018-03-29T22:02:57.590Z,6.40
2018-03-29T22:05:24.834Z,6.40
2018-03-29T22:07:52.251Z,6.30
2018-03-29T22:10:19.713Z,6.20
2018-03-29T22:12:47.191Z,6.10
2018-03-29T22:15:14.597Z,6.00
2018-03-29T22:17:42.172Z,5.90
2018-03-29T22:20:09.666Z,5.80
2018-03-29T22:22:37.087Z,5.80
2018-03-29T22:25:04.606Z,5.80
2018-03-29T22:27:32.025Z,5.70
2018-03-29T22:32:30.946Z,5.80
2018-03-29T22:34:58.366Z,5.80
2018-03-29T22:37:25.785Z,5.70
2018-03-29T22:39:53.745Z,5.70
2018-03-29T22:42:21.108Z,5.60
2018-03-29T22:44:48.608Z,5.50
2018-03-29T22:47:16.286Z,5.50
2018-03-29T22:49:44.505Z,5.70
2018-03-29T22:52:12.636Z,5.70
2018-03-29T22:54:40.147Z,5.70
2018-03-29T22:57:07.648Z,5.70
2018-03-29T22:59:35.329Z,5.70
2018-03-29T23:02:02.853Z,5.70
2018-03-29T23:04:30.333Z,5.70
2018-03-29T23:06:57.633Z,5.70
2018-03-29T23:09:25.093Z,5.70
2018-03-29T23:11:52.833Z,5.80
2018-03-29T23:14:20.293Z,5.80
2018-03-29T23:16:47.854Z,5.80
2018-03-29T23:19:15.173Z,5.80
2018-03-29T23:21:43.334Z,5.70
2018-03-29T23:24:10.793Z,5.70
2018-03-29T23:26:38.073Z,5.60
2018-03-29T23:29:05.539Z,5.40
2018-03-29T23:31:33.766Z,5.20
2018-03-29T23:34:01.426Z,5.20
2018-03-29T23:36:28.804Z,5.10
2018-03-29T23:38:56.606Z,4.90
2018-03-29T23:41:23.947Z,4.90
2018-03-29T23:43:52.086Z,4.60
2018-03-29T23:46:19.547Z,4.60
2018-03-29T23:48:47.206Z,4.70
2018-03-29T23:51:14.707Z,4.70
2018-03-29T23:53:42.207Z,4.70
2018-03-29T23:56:09.506Z,4.80
2018-03-29T23:58:36.806Z,4.70
